Time;durP1;ratioP1;P1;durP2;ratioP2;P2;SDS_P1;SDS_P2;PMS_P1;PMS_P2;Temp;Humidity;BMP_temperature;BMP_pressure;BME280_temperature;BME280_humidity;BME280_pressure;Samples;Min_cycle;Max_cycle;Signal;HPM_P1;HPM_P2
2021/04/03 00:00:12;;;;;;;4.32;3.33;;;6.40;73.80;;;;;;5043344;28;20025;-80
2021/04/03 00:02:39;;;;;;;4.35;3.33;;;6.40;73.90;;;;;;5042495;28;20033;-79
2021/04/03 00:05:07;;;;;;;4.40;3.20;;;6.40;73.80;;;;;;5041712;28;20029;-79
2021/04/03 00:07:32;;;;;;;3.80;3.42;;;6.40;73.90;;;;;;5041511;28;20029;-80
2021/04/03 00:09:58;;;;;;;4.75;3.45;;;6.40;73.90;;;;;;5042087;28;20428;-79
2021/04/03 00:12:24;;;;;;;4.13;3.38;;;6.30;73.80;;;;;;5042459;28;20030;-80
2021/04/03 00:14:51;;;;;;;4.90;3.70;;;6.40;73.90;;;;;;5040047;28;20022;-80
2021/04/03 00:17:16;;;;;;;6.63;3.75;;;6.30;73.80;;;;;;5042768;28;20017;-80
2021/04/03 00:19:42;;;;;;;4.05;3.38;;;6.30;73.80;;;;;;5041310;28;20203;-80
2021/04/03 00:22:08;;;;;;;4.65;3.90;;;6.30;73.90;;;;;;5041196;28;20053;-80
2021/04/03 00:24:34;;;;;;;5.97;3.83;;;6.30;73.90;;;;;;5043423;28;20049;-80
2021/04/03 00:27:00;;;;;;;4.63;3.92;;;6.30;74.00;;;;;;5042798;28;20356;-80
2021/04/03 00:29:26;;;;;;;5.38;3.53;;;6.30;74.00;;;;;;5041916;28;20017;-80
2021/04/03 00:31:51;;;;;;;4.82;3.95;;;6.30;74.10;;;;;;5044954;28;20025;-80
2021/04/03 00:34:17;;;;;;;5.22;3.90;;;6.30;74.10;;;;;;5044876;28;20025;-78
2021/04/03 00:36:43;;;;;;;5.20;3.72;;;6.20;74.10;;;;;;5046755;28;20034;-79
2021/04/03 00:39:09;;;;;;;4.28;3.40;;;6.20;74.10;;;;;;5040871;28;20029;-79
2021/04/03 00:41:34;;;;;;;6.18;4.50;;;6.20;74.10;;;;;;5042578;28;20029;-79
2021/04/03 00:44:00;;;;;;;5.03;4.03;;;6.20;74.10;;;;;;5042204;28;20024;-79
2021/04/03 00:46:26;;;;;;;5.68;4.10;;;6.20;74.20;;;;;;5041095;28;20389;-78
2021/04/03 00:48:52;;;;;;;4.22;3.45;;;6.20;74.20;;;;;;5043419;28;20021;-78
2021/04/03 00:51:17;;;;;;;4.80;3.90;;;6.20;74.30;;;;;;5038681;28;20459;-79
2021/04/03 00:53:43;;;;;;;6.10;3.85;;;6.20;74.40;;;;;;5033169;28;20029;-79
2021/04/03 00:56:09;;;;;;;4.50;3.45;;;6.20;74.40;;;;;;5044796;28;20440;-79
2021/04/03 00:58:35;;;;;;;4.22;3.80;;;6.20;74.40;;;;;;5037222;28;20482;-78
2021/04/03 01:01:03;;;;;;;7.32;3.50;;;6.20;74.30;;;;;;5037103;28;20040;-78
2021/04/03 01:03:29;;;;;;;3.70;3.38;;;6.20;74.30;;;;;;5037319;28;20026;-79
2021/04/03 01:05:55;;;;;;;3.97;3.45;;;6.20;74.30;;;;;;5040707;28;20052;-79
2021/04/03 01:08:21;;;;;;;4.35;3.60;;;6.20;74.40;;;;;;5057208;28;20477;-79
2021/04/03 01:10:54;;;;;;;4.93;3.75;;;6.20;74.30;;;;;;5056484;28;20024;-79
2021/04/03 01:13:23;;;;;;;3.53;3.20;;;6.20;74.30;;;;;;5057122;28;20032;-79
2021/04/03 01:16:04;;;;;;;6.25;3.53;;;6.20;74.30;;;;;;5055798;28;20025;-79
2021/04/03 01:19:18;;;;;;;4.15;3.60;;;6.20;74.40;;;;;;5055924;28;20075;-79
2021/04/03 01:22:19;;;;;;;5.90;3.85;;;6.20;74.20;;;;;;5046153;28;20450;-79
2021/04/03 01:25:09;;;;;;;4.72;3.30;;;6.20;74.20;;;;;;5057011;28;20071;-79
2021/04/03 01:27:46;;;;;;;7.68;3.80;;;6.20;74.20;;;;;;5056122;28;20193;-79
2021/04/03 01:30:17;;;;;;;4.50;3.58;;;6.30;74.30;;;;;;5057010;28;20423;-79
2021/04/03 01:32:56;;;;;;;4.40;3.50;;;6.30;74.30;;;;;;5055741;28;20114;-79
2021/04/03 01:35:38;;;;;;;6.10;3.63;;;6.30;74.20;;;;;;5046778;28;20038;-79
2021/04/03 01:38:16;;;;;;;5.28;3.53;;;6.30;74.20;;;;;;5035601;28;20040;-79
2021/04/03 01:40:44;;;;;;;5.30;3.80;;;6.30;74.10;;;;;;5035542;28;20025;-79
2021/04/03 01:43:16;;;;;;;5.63;3.67;;;6.40;74.20;;;;;;5036814;28;20087;-79
2021/04/03 01:45:42;;;;;;;5.72;3.72;;;6.40;74.20;;;;;;5041448;28;20430;-79
2021/04/03 01:48:10;;;;;;;4.57;3.78;;;6.50;74.30;;;;;;5056866;28;20029;-79
2021/04/03 01:50:38;;;;;;;5.60;3.55;;;6.50;74.30;;;;;;5056672;28;20111;-79
2021/04/03 01:53:04;;;;;;;5.22;3.95;;;6.60;74.30;;;;;;5056909;28;20033;-79
2021/04/03 01:55:31;;;;;;;6.40;4.40;;;6.60;74.20;;;;;;5056444;28;20037;-79
2021/04/03 01:57:58;;;;;;;6.32;4.03;;;6.70;74.10;;;;;;5055428;28;20422;-79
2021/04/03 02:00:27;;;;;;;6.72;4.40;;;6.80;74.00;;;;;;5054333;28;20052;-79
2021/04/03 02:02:53;;;;;;;6.10;4.07;;;6.90;74.00;;;;;;5055917;28;20029;-79
2021/04/03 02:05:20;;;;;;;5.63;4.22;;;7.00;73.80;;;;;;5055675;28;20057;-79
2021/04/03 02:07:47;;;;;;;7.43;4.40;;;7.00;73.50;;;;;;5053484;28;20108;-78
2021/04/03 02:10:18;;;;;;;8.43;4.40;;;7.10;73.30;;;;;;5055254;28;20033;-78
2021/04/03 02:12:46;;;;;;;4.75;4.15;;;7.10;73.00;;;;;;5055832;28;20378;-78
2021/04/03 02:15:13;;;;;;;4.93;3.97;;;7.20;72.90;;;;;;5054546;28;20032;-78
2021/04/03 02:17:41;;;;;;;6.75;4.13;;;7.20;72.70;;;;;;5056488;28;20098;-79
2021/04/03 02:20:10;;;;;;;4.68;3.85;;;7.30;72.50;;;;;;5056345;28;20068;-78
2021/04/03 02:22:36;;;;;;;7.00;4.90;;;7.30;72.30;;;;;;5055558;28;20048;-78
2021/04/03 02:25:07;;;;;;;6.95;4.32;;;7.30;72.40;;;;;;5055432;28;20044;-79
2021/04/03 02:27:34;;;;;;;5.85;4.10;;;7.30;72.10;;;;;;5055591;28;20029;-80
2021/04/03 02:30:11;;;;;;;5.43;4.03;;;7.30;71.90;;;;;;5055263;28;20025;-79
2021/04/03 02:32:39;;;;;;;7.35;4.40;;;7.20;71.80;;;;;;5055266;28;20033;-79
2021/04/03 02:35:05;;;;;;;5.55;4.30;;;7.20;71.70;;;;;;5055235;28;20455;-79
2021/04/03 02:37:31;;;;;;;5.30;3.67;;;7.20;71.70;;;;;;5055327;28;20021;-79
2021/04/03 02:39:57;;;;;;;6.00;4.38;;;7.20;71.70;;;;;;5053893;28;20102;-79
2021/04/03 02:42:25;;;;;;;5.85;4.47;;;7.10;71.60;;;;;;5053721;28;20029;-79
2021/04/03 02:45:03;;;;;;;5.82;4.22;;;7.10;71.70;;;;;;5055431;28;20064;-79
2021/04/03 02:47:41;;;;;;;7.72;4.45;;;7.00;71.80;;;;;;5054988;28;20033;-79
2021/04/03 02:50:31;;;;;;;6.28;4.50;;;7.10;71.90;;;;;;5054925;28;20100;-79
2021/04/03 02:52:57;;;;;;;4.88;4.07;;;7.10;71.90;;;;;;5056485;28;20459;-79
2021/04/03 02:55:27;;;;;;;8.00;4.70;;;7.10;72.20;;;;;;5064477;28;20040;-78
2021/04/03 02:57:53;;;;;;;7.22;4.55;;;7.10;71.90;;;;;;5074529;28;20048;-78
2021/04/03 03:00:21;;;;;;;6.07;4.30;;;7.10;72.00;;;;;;5054882;28;20383;-78
2021/04/03 03:02:50;;;;;;;6.35;4.93;;;7.10;72.00;;;;;;5055271;28;20387;-79
2021/04/03 03:05:17;;;;;;;9.23;4.65;;;7.10;72.10;;;;;;5054923;28;20025;-78
2021/04/03 03:07:45;;;;;;;8.02;5.10;;;7.10;72.10;;;;;;5054595;28;20457;-79
2021/04/03 03:10:16;;;;;;;8.07;5.40;;;7.20;72.10;;;;;;5055088;28;20025;-78
2021/04/03 03:12:47;;;;;;;9.88;5.35;;;7.20;71.90;;;;;;5054933;28;20029;-79
2021/04/03 03:15:16;;;;;;;6.97;4.88;;;7.20;71.80;;;;;;5053535;28;20021;-79
2021/04/03 03:17:45;;;;;;;6.25;4.65;;;7.20;71.80;;;;;;5053336;28;20486;-78
2021/04/03 03:20:15;;;;;;;5.45;4.40;;;7.30;71.80;;;;;;5055223;28;20491;-78
2021/04/03 03:22:42;;;;;;;6.10;4.22;;;7.30;71.60;;;;;;5054211;28;20466;-79
2021/04/03 03:25:09;;;;;;;6.97;4.60;;;7.30;71.50;;;;;;5054744;28;20535;-79
2021/04/03 03:27:40;;;;;;;6.85;4.55;;;7.30;71.40;;;;;;5054569;28;20116;-79
2021/04/03 03:30:08;;;;;;;5.45;4.50;;;7.30;71.30;;;;;;5054958;28;20067;-79
2021/04/03 03:32:34;;;;;;;5.60;4.43;;;7.30;71.20;;;;;;5036538;28;20037;-79
2021/04/03 03:35:00;;;;;;;6.45;5.43;;;7.20;71.00;;;;;;5053502;28;20025;-79
2021/04/03 03:37:27;;;;;;;7.82;6.00;;;7.20;71.00;;;;;;5052743;28;20482;-80
2021/04/03 03:39:53;;;;;;;7.43;5.47;;;7.10;70.90;;;;;;5054153;28;20036;-81
2021/04/03 03:42:20;;;;;;;8.50;5.80;;;7.00;71.00;;;;;;5054221;28;20108;-79
2021/04/03 03:44:46;;;;;;;8.70;6.32;;;7.00;71.10;;;;;;5054351;28;20413;-79
2021/04/03 03:47:12;;;;;;;9.20;6.68;;;6.90;71.20;;;;;;5054701;28;20028;-79
2021/04/03 03:49:38;;;;;;;11.40;7.07;;;6.90;71.40;;;;;;5054078;28;20108;-79
2021/04/03 03:52:05;;;;;;;11.40;7.45;;;6.80;71.50;;;;;;5053900;28;20033;-80
2021/04/03 03:54:30;;;;;;;10.82;8.35;;;6.70;71.60;;;;;;5053468;28;20063;-79
2021/04/03 03:56:56;;;;;;;11.80;8.43;;;6.70;71.60;;;;;;5053763;28;20112;-79
2021/04/03 03:59:22;;;;;;;11.77;8.82;;;6.70;71.80;;;;;;5053654;28;20025;-79
2021/04/03 04:01:48;;;;;;;13.43;8.70;;;6.60;71.90;;;;;;5053672;28;20418;-80
2021/04/03 04:04:13;;;;;;;14.52;9.05;;;6.60;72.00;;;;;;5053530;28;20427;-80
2021/04/03 04:06:39;;;;;;;10.88;8.15;;;6.60;72.20;;;;;;5053085;28;20394;-79
2021/04/03 04:09:05;;;;;;;11.88;8.30;;;6.60;72.30;;;;;;5053685;28;20036;-80
2021/04/03 04:11:32;;;;;;;11.93;8.95;;;6.60;72.40;;;;;;5052298;28;20490;-80
2021/04/03 04:13:58;;;;;;;15.45;9.40;;;6.60;72.50;;;;;;5053596;28;20033;-79
2021/04/03 04:16:24;;;;;;;15.40;10.05;;;6.60;72.50;;;;;;5053768;28;20028;-79
2021/04/03 04:18:49;;;;;;;14.80;10.07;;;6.60;72.50;;;;;;5052551;28;20498;-79
2021/04/03 04:21:15;;;;;;;13.75;9.82;;;6.60;72.50;;;;;;5054054;28;20044;-79
2021/04/03 04:23:41;;;;;;;15.05;10.77;;;6.70;72.60;;;;;;5054002;28;20029;-79
2021/04/03 04:26:07;;;;;;;15.68;11.45;;;6.70;72.70;;;;;;5053172;28;20033;-78
2021/04/03 04:28:34;;;;;;;17.70;11.80;;;6.70;72.80;;;;;;5053458;28;20113;-78
2021/04/03 04:31:00;;;;;;;19.65;12.48;;;6.70;72.90;;;;;;5053711;28;20479;-79
2021/04/03 04:33:26;;;;;;;17.67;12.02;;;6.70;72.90;;;;;;5053800;28;20033;-80
2021/04/03 04:35:52;;;;;;;22.63;13.55;;;6.80;73.10;;;;;;5052887;28;20027;-79
2021/04/03 04:38:18;;;;;;;20.90;12.13;;;6.80;73.20;;;;;;5053651;28;20060;-80
2021/04/03 04:40:44;;;;;;;17.70;11.73;;;6.80;73.30;;;;;;5053877;28;20039;-80
2021/04/03 04:43:10;;;;;;;22.13;12.15;;;6.90;73.60;;;;;;5053701;28;20108;-81
2021/04/03 04:45:36;;;;;;;21.65;13.48;;;6.90;73.70;;;;;;5054316;28;20028;-81
2021/04/03 04:48:02;;;;;;;22.85;12.95;;;6.90;73.80;;;;;;5053912;28;20025;-79
2021/04/03 04:50:28;;;;;;;19.42;13.25;;;7.00;74.00;;;;;;5055708;28;20028;-80
2021/04/03 04:52:53;;;;;;;21.60;13.57;;;7.00;74.00;;;;;;5052845;28;20030;-78
2021/04/03 04:55:19;;;;;;;19.77;13.48;;;7.10;74.00;;;;;;5053216;28;20035;-79
2021/04/03 04:57:45;;;;;;;20.88;13.30;;;7.10;74.00;;;;;;5053112;28;20075;-80
2021/04/03 05:00:11;;;;;;;22.55;14.05;;;7.20;74.00;;;;;;5053323;28;20036;-80
2021/04/03 05:02:37;;;;;;;27.00;16.40;;;7.20;73.90;;;;;;5053563;28;20052;-80
2021/04/03 05:05:03;;;;;;;25.40;16.10;;;7.30;73.90;;;;;;5053476;28;20056;-79
2021/04/03 05:07:29;;;;;;;21.08;13.50;;;7.30;73.90;;;;;;5053363;28;20091;-79
2021/04/03 05:09:54;;;;;;;24.48;14.77;;;7.40;73.80;;;;;;5053271;28;20459;-80
2021/04/03 05:12:20;;;;;;;22.90;14.38;;;7.40;73.60;;;;;;5053455;28;20033;-80
2021/04/03 05:14:46;;;;;;;20.35;13.65;;;7.50;73.70;;;;;;5053386;28;20029;-79
2021/04/03 05:17:12;;;;;;;17.55;12.70;;;7.50;73.60;;;;;;5054554;28;20033;-79
2021/04/03 05:19:37;;;;;;;18.58;12.77;;;7.50;73.60;;;;;;5063685;28;20053;-79
2021/04/03 05:22:03;;;;;;;19.33;12.15;;;7.60;73.50;;;;;;5055845;28;20120;-80
2021/04/03 05:24:29;;;;;;;23.70;12.90;;;7.60;73.50;;;;;;5053619;28;20382;-80
2021/04/03 05:26:55;;;;;;;20.73;12.13;;;7.70;73.60;;;;;;5053232;28;20124;-80
2021/04/03 05:29:20;;;;;;;17.13;11.23;;;7.70;73.30;;;;;;5053273;28;20113;-80
2021/04/03 05:31:46;;;;;;;18.85;11.55;;;7.80;73.10;;;;;;5051294;28;20071;-81
2021/04/03 05:34:12;;;;;;;18.77;11.82;;;7.80;73.00;;;;;;5053279;28;20029;-82
2021/04/03 05:36:37;;;;;;;17.85;11.63;;;7.90;72.90;;;;;;5052917;28;20029;-81
2021/04/03 05:39:03;;;;;;;19.70;10.40;;;7.90;72.70;;;;;;5052672;28;20061;-80
2021/04/03 05:41:29;;;;;;;15.57;10.50;;;8.00;72.70;;;;;;5056009;28;20055;-80
2021/04/03 05:43:56;;;;;;;16.95;10.43;;;8.00;72.50;;;;;;5056316;28;20021;-81
2021/04/03 05:46:22;;;;;;;19.02;11.32;;;8.10;72.20;;;;;;5056406;28;20035;-79
2021/04/03 05:48:49;;;;;;;22.63;11.88;;;8.10;72.10;;;;;;5056353;28;20074;-81
2021/04/03 05:51:16;;;;;;;18.10;11.07;;;8.20;72.00;;;;;;5056800;28;20037;-81
2021/04/03 05:53:43;;;;;;;17.63;10.98;;;8.30;72.00;;;;;;5056064;28;20040;-80
2021/04/03 05:56:09;;;;;;;15.70;9.52;;;8.30;71.80;;;;;;5056204;28;20517;-79
2021/04/03 05:58:37;;;;;;;17.13;10.48;;;8.40;71.80;;;;;;5056163;28;20033;-80
2021/04/03 06:01:05;;;;;;;16.52;8.85;;;8.70;72.00;;;;;;5056178;28;20111;-81
2021/04/03 06:03:31;;;;;;;19.55;9.18;;;8.80;71.10;;;;;;5056584;28;20455;-79
2021/04/03 06:05:58;;;;;;;14.15;9.98;;;8.90;70.20;;;;;;5056152;28;20021;-81
2021/04/03 06:08:31;;;;;;;16.45;9.90;;;8.90;69.60;;;;;;5057162;28;20050;-78
2021/04/03 06:11:10;;;;;;;15.00;9.30;;;9.00;69.40;;;;;;5057672;28;20033;-80
2021/04/03 06:13:36;;;;;;;15.48;10.20;;;9.00;69.00;;;;;;5056684;28;20151;-79
2021/04/03 06:16:03;;;;;;;14.93;9.48;;;9.10;68.80;;;;;;5055971;28;20107;-79
2021/04/03 06:18:29;;;;;;;18.42;10.73;;;9.10;68.40;;;;;;5055374;28;20076;-81
2021/04/03 06:21:07;;;;;;;15.85;10.80;;;9.00;68.10;;;;;;5055780;28;20056;-79
2021/04/03 06:23:33;;;;;;;11.50;8.45;;;9.00;68.00;;;;;;5055590;28;20029;-79
2021/04/03 06:25:59;;;;;;;16.20;9.80;;;9.00;68.10;;;;;;5055556;28;20171;-79
2021/04/03 06:28:26;;;;;;;11.95;9.02;;;9.00;68.00;;;;;;5056418;28;20025;-79
2021/04/03 06:31:11;;;;;;;13.95;8.05;;;9.00;67.80;;;;;;5055801;28;20025;-79
2021/04/03 06:33:37;;;;;;;11.60;7.35;;;9.00;67.50;;;;;;5055745;28;20036;-79
2021/04/03 06:36:14;;;;;;;12.73;8.00;;;9.10;67.30;;;;;;5055366;28;20037;-78
2021/04/03 06:38:41;;;;;;;13.10;7.40;;;9.20;66.90;;;;;;5055378;28;20394;-79
2021/04/03 06:41:25;;;;;;;12.05;6.78;;;9.20;66.60;;;;;;5055879;28;20100;-79
2021/04/03 06:44:06;;;;;;;12.05;7.03;;;9.20;66.10;;;;;;5057189;28;20124;-80
2021/04/03 06:46:32;;;;;;;10.45;6.05;;;9.20;65.90;;;;;;5055331;28;20025;-79
2021/04/03 06:48:59;;;;;;;11.23;6.28;;;9.30;65.70;;;;;;5055493;28;20025;-78
2021/04/03 06:51:26;;;;;;;9.23;5.85;;;9.30;65.30;;;;;;5055207;28;20032;-79
2021/04/03 06:53:54;;;;;;;9.52;6.07;;;9.40;65.00;;;;;;5053913;28;20117;-79
2021/04/03 06:56:25;;;;;;;7.80;4.90;;;9.50;64.60;;;;;;5053873;28;20053;-78
2021/04/03 06:58:59;;;;;;;9.32;6.15;;;9.60;63.80;;;;;;5054698;28;20397;-78
2021/04/03 07:01:29;;;;;;;10.27;5.80;;;9.70;63.40;;;;;;5054787;28;20459;-78
2021/04/03 07:04:03;;;;;;;9.02;5.82;;;9.80;63.30;;;;;;5055035;28;20032;-79
2021/04/03 07:06:31;;;;;;;8.33;5.23;;;9.90;63.00;;;;;;5055130;28;20020;-79
2021/04/03 07:08:57;;;;;;;8.77;5.03;;;10.00;62.70;;;;;;5054702;28;20030;-79
2021/04/03 07:11:25;;;;;;;8.48;5.25;;;10.10;62.00;;;;;;5054487;28;20493;-78
2021/04/03 07:13:52;;;;;;;6.75;4.70;;;10.10;61.70;;;;;;5053277;28;20036;-77
2021/04/03 07:16:21;;;;;;;8.20;5.20;;;10.20;61.40;;;;;;5054566;28;20021;-80
2021/04/03 07:18:48;;;;;;;8.15;4.82;;;10.20;61.00;;;;;;5054275;28;20084;-79
2021/04/03 07:21:14;;;;;;;9.27;4.97;;;10.30;60.90;;;;;;5052780;28;20078;-79
2021/04/03 07:23:40;;;;;;;6.55;4.60;;;10.40;60.70;;;;;;5054700;28;20451;-78
2021/04/03 07:26:09;;;;;;;8.18;4.75;;;10.50;60.40;;;;;;5054379;28;20025;-76
2021/04/03 07:28:37;;;;;;;7.53;4.80;;;10.60;60.00;;;;;;5054317;28;20036;-76
2021/04/03 07:31:02;;;;;;;6.97;4.78;;;10.70;59.80;;;;;;5052686;28;20037;-76
2021/04/03 07:33:29;;;;;;;7.20;4.30;;;10.90;59.30;;;;;;5057718;28;20033;-77
2021/04/03 07:35:59;;;;;;;8.50;4.70;;;11.00;58.80;;;;;;5054828;28;20029;-77
2021/04/03 07:38:38;;;;;;;5.70;4.22;;;11.10;57.90;;;;;;5053128;28;20043;-77
2021/04/03 07:41:12;;;;;;;6.30;3.88;;;11.20;57.70;;;;;;5071953;28;20005;-77
2021/04/03 07:43:43;;;;;;;4.65;3.95;;;11.30;57.40;;;;;;5058563;28;20339;-77
2021/04/03 07:46:13;;;;;;;6.72;4.03;;;11.50;57.00;;;;;;5054022;28;20021;-79
2021/04/03 07:48:46;;;;;;;6.22;3.50;;;11.60;56.60;;;;;;5053447;28;20383;-77
2021/04/03 07:51:35;;;;;;;7.20;3.80;;;11.70;56.10;;;;;;5053669;28;20113;-77
2021/04/03 07:54:03;;;;;;;6.00;3.95;;;12.00;55.60;;;;;;5049908;28;20116;-78
2021/04/03 07:56:52;;;;;;;4.65;3.40;;;12.20;55.10;;;;;;5053341;28;20366;-78
2021/04/03 07:59:18;;;;;;;7.00;3.88;;;12.50;54.40;;;;;;5049746;28;20033;-77
2021/04/03 08:01:47;;;;;;;6.47;3.45;;;12.70;54.00;;;;;;5053113;28;20033;-78
2021/04/03 08:04:13;;;;;;;4.95;3.65;;;12.90;53.20;;;;;;5052430;28;20051;-77
2021/04/03 08:06:42;;;;;;;3.95;3.05;;;13.10;52.60;;;;;;5056472;28;20029;-78
2021/04/03 08:09:16;;;;;;;3.97;2.92;;;13.40;52.00;;;;;;5052132;28;20502;-77
2021/04/03 08:11:43;;;;;;;4.18;2.97;;;13.70;51.20;;;;;;5052783;28;20033;-76
2021/04/03 08:14:11;;;;;;;7.20;3.58;;;14.10;50.90;;;;;;5053347;28;20028;-77
2021/04/03 08:16:37;;;;;;;12.63;6.60;;;14.40;50.20;;;;;;5053118;28;20025;-77
2021/04/03 08:19:04;;;;;;;4.38;3.10;;;14.70;49.60;;;;;;5053237;28;20049;-78
2021/04/03 08:21:44;;;;;;;4.35;2.70;;;15.10;48.90;;;;;;5053420;28;20037;-81
2021/04/03 08:24:10;;;;;;;6.32;2.97;;;15.50;48.30;;;;;;5052122;28;20482;-77
2021/04/03 08:26:38;;;;;;;3.47;2.55;;;15.90;47.40;;;;;;5053355;28;20192;-78
2021/04/03 08:29:04;;;;;;;4.22;3.10;;;16.30;46.20;;;;;;5051931;28;20029;-78
2021/04/03 08:31:33;;;;;;;3.60;2.88;;;16.80;46.20;;;;;;5053137;28;20061;-79
2021/04/03 08:34:01;;;;;;;5.85;2.70;;;17.30;44.80;;;;;;5052002;28;20040;-79
2021/04/03 08:36:36;;;;;;;4.05;2.80;;;18.00;44.40;;;;;;5053264;28;20029;-79
2021/04/03 08:39:08;;;;;;;2.83;2.13;;;18.80;43.20;;;;;;5051679;28;20033;-78
2021/04/03 08:41:36;;;;;;;3.72;2.40;;;19.60;42.80;;;;;;5053114;28;20029;-78
2021/04/03 08:44:12;;;;;;;3.45;2.78;;;20.50;41.90;;;;;;5053114;28;20052;-79
2021/04/03 08:46:41;;;;;;;5.35;2.80;;;21.50;40.80;;;;;;5053576;28;20078;-78
2021/04/03 08:49:07;;;;;;;4.25;2.80;;;22.50;39.30;;;;;;5053104;28;20021;-79
2021/04/03 08:51:34;;;;;;;4.30;2.40;;;23.40;38.30;;;;;;5051653;28;20079;-79
2021/04/03 08:54:00;;;;;;;4.72;3.03;;;24.30;37.00;;;;;;5053388;28;20039;-79
2021/04/03 08:56:36;;;;;;;6.18;2.65;;;25.10;35.70;;;;;;5053043;28;20025;-79
2021/04/03 08:59:06;;;;;;;2.58;2.25;;;25.80;34.40;;;;;;5053102;28;20075;-78
2021/04/03 09:01:36;;;;;;;2.40;2.20;;;26.40;33.20;;;;;;5053083;28;20129;-79
2021/04/03 09:04:06;;;;;;;3.00;2.13;;;27.10;32.50;;;;;;5053084;28;20414;-80
2021/04/03 09:06:58;;;;;;;3.42;1.98;;;27.60;31.60;;;;;;5052574;28;20035;-79
2021/04/03 09:09:29;;;;;;;4.70;2.25;;;28.10;30.30;;;;;;5051594;28;20445;-80
2021/04/03 09:12:09;;;;;;;3.85;2.38;;;28.40;30.10;;;;;;5052816;28;20021;-80
2021/04/03 09:14:37;;;;;;;3.53;2.00;;;28.90;29.30;;;;;;5053009;28;20100;-79
2021/04/03 09:17:05;;;;;;;2.17;1.98;;;29.10;29.10;;;;;;5055560;28;20371;-79
2021/04/03 09:19:36;;;;;;;2.63;2.20;;;29.00;28.50;;;;;;5056444;28;20066;-79
2021/04/03 09:22:03;;;;;;;3.78;2.17;;;29.10;28.40;;;;;;5056463;28;20040;-80
2021/04/03 09:24:38;;;;;;;2.60;2.08;;;29.50;28.50;;;;;;5056422;28;20430;-79
2021/04/03 09:27:17;;;;;;;1.67;1.50;;;29.90;27.90;;;;;;5055603;28;20471;-79
2021/04/03 09:29:54;;;;;;;1.73;1.63;;;30.10;27.40;;;;;;5056621;28;20036;-79
2021/04/03 09:32:20;;;;;;;2.65;2.20;;;30.20;27.40;;;;;;5056275;28;20033;-80
2021/04/03 09:34:46;;;;;;;2.33;2.10;;;30.60;27.50;;;;;;5056743;28;20175;-80
2021/04/03 09:37:19;;;;;;;4.22;2.63;;;30.80;27.30;;;;;;5056208;28;20040;-78
2021/04/03 09:39:55;;;;;;;6.50;2.57;;;31.20;27.20;;;;;;5070739;28;20040;-80
2021/04/03 09:42:23;;;;;;;3.15;1.70;;;31.70;26.80;;;;;;5075269;28;20028;-79
2021/04/03 09:44:49;;;;;;;2.50;1.80;;;32.20;26.60;;;;;;5075045;28;20024;-79
2021/04/03 09:47:16;;;;;;;4.70;2.90;;;32.60;26.10;;;;;;5076551;28;20173;-80
2021/04/03 09:49:43;;;;;;;1.58;1.48;;;32.60;25.80;;;;;;5075712;28;20111;-80
2021/04/03 09:52:10;;;;;;;2.47;1.83;;;32.80;26.20;;;;;;5076194;28;20115;-79
2021/04/03 09:54:37;;;;;;;5.03;1.95;;;33.00;25.50;;;;;;5074571;28;20037;-79
2021/04/03 09:57:03;;;;;;;4.10;1.85;;;33.10;25.50;;;;;;5076324;28;20040;-79
2021/04/03 09:59:30;;;;;;;2.40;2.20;;;33.50;25.40;;;;;;5075998;28;20024;-79
2021/04/03 10:01:57;;;;;;;4.60;1.88;;;33.90;25.20;;;;;;5078487;28;20389;-80
2021/04/03 10:04:23;;;;;;;3.65;2.00;;;34.20;25.00;;;;;;5097719;28;20047;-77
2021/04/03 10:06:50;;;;;;;4.95;2.33;;;34.50;25.00;;;;;;5079554;28;20073;-79
2021/04/03 10:09:15;;;;;;;2.20;2.00;;;34.80;24.80;;;;;;5076212;28;20031;-79
2021/04/03 10:11:41;;;;;;;2.85;1.80;;;35.00;24.60;;;;;;5076562;28;20024;-81
2021/04/03 10:14:07;;;;;;;2.00;1.83;;;35.20;25.00;;;;;;5075912;28;20112;-78
2021/04/03 10:16:33;;;;;;;1.58;1.45;;;35.30;24.40;;;;;;5075839;28;20382;-79
2021/04/03 10:18:59;;;;;;;3.72;1.70;;;35.60;24.30;;;;;;5075444;28;20481;-80
2021/04/03 10:21:25;;;;;;;2.25;1.90;;;35.70;24.00;;;;;;5076033;28;20467;-78
2021/04/03 10:23:51;;;;;;;2.97;1.58;;;35.90;23.80;;;;;;5074800;28;20024;-79
2021/04/03 10:26:18;;;;;;;1.65;1.52;;;36.00;23.60;;;;;;5073799;28;20055;-78
2021/04/03 10:28:44;;;;;;;1.98;1.80;;;36.10;23.40;;;;;;5073391;28;20032;-79
2021/04/03 10:31:10;;;;;;;1.58;1.48;;;36.10;23.40;;;;;;5074800;28;20063;-79
2021/04/03 10:33:36;;;;;;;1.77;1.65;;;36.10;23.20;;;;;;5073818;28;20381;-80
2021/04/03 10:36:06;;;;;;;1.67;1.30;;;36.20;23.20;;;;;;5073477;28;20471;-79
2021/04/03 10:38:33;;;;;;;2.60;1.67;;;36.30;23.00;;;;;;5074422;28;20218;-78
2021/04/03 10:41:00;;;;;;;2.70;2.08;;;36.40;23.00;;;;;;5074955;28;20439;-78
2021/04/03 10:43:26;;;;;;;2.00;1.80;;;36.30;22.80;;;;;;5074650;28;20024;-79
2021/04/03 10:45:52;;;;;;;2.25;2.05;;;36.20;22.70;;;;;;5074860;28;20120;-72
2021/04/03 10:48:18;;;;;;;7.38;2.03;;;36.20;22.90;;;;;;5074323;28;20103;-78
2021/04/03 10:50:44;;;;;;;1.80;1.70;;;36.30;22.70;;;;;;5073542;28;20031;-79
2021/04/03 10:53:11;;;;;;;3.83;2.03;;;36.50;22.60;;;;;;5073521;28;20017;-79
2021/04/03 10:55:37;;;;;;;8.52;2.30;;;36.70;22.60;;;;;;5073889;28;20076;-79
2021/04/03 10:58:03;;;;;;;1.83;1.63;;;37.00;22.70;;;;;;5073535;28;20037;-78
2021/04/03 11:00:29;;;;;;;1.95;1.63;;;37.30;22.60;;;;;;5074447;28;20043;-79
2021/04/03 11:02:55;;;;;;;2.47;1.80;;;37.40;22.50;;;;;;5074911;28;20024;-80
2021/04/03 11:05:22;;;;;;;1.98;1.77;;;37.60;22.50;;;;;;5074987;28;20064;-80
2021/04/03 11:07:48;;;;;;;1.75;1.58;;;37.80;22.40;;;;;;5073249;28;20526;-80
2021/04/03 11:10:14;;;;;;;1.88;1.77;;;37.80;22.20;;;;;;5074143;28;20031;-79
2021/04/03 11:12:41;;;;;;;4.05;1.80;;;37.80;22.20;;;;;;5074296;28;20131;-81
2021/04/03 11:15:08;;;;;;;2.55;1.73;;;37.90;22.10;;;;;;5074464;28;20035;-80
2021/04/03 11:17:34;;;;;;;2.03;1.83;;;37.90;21.80;;;;;;5073340;28;20032;-79
2021/04/03 11:20:00;;;;;;;3.60;1.85;;;37.90;21.70;;;;;;5074467;28;20040;-79
2021/04/03 11:22:26;;;;;;;2.20;1.85;;;37.90;21.90;;;;;;5074530;28;20039;-79
2021/04/03 11:24:52;;;;;;;1.98;1.52;;;38.00;22.00;;;;;;5074526;28;20024;-80
2021/04/03 11:27:18;;;;;;;2.53;1.77;;;38.30;21.90;;;;;;5074682;28;20056;-80
2021/04/03 11:29:44;;;;;;;2.92;1.67;;;38.50;21.80;;;;;;5074253;28;20032;-80
2021/04/03 11:32:10;;;;;;;1.40;1.30;;;38.50;21.70;;;;;;5071651;28;20029;-80
2021/04/03 11:34:35;;;;;;;2.53;1.75;;;38.40;21.60;;;;;;5073464;28;20482;-80
2021/04/03 11:37:01;;;;;;;2.13;1.92;;;38.40;21.60;;;;;;5073119;28;20027;-79
2021/04/03 11:39:27;;;;;;;1.60;1.50;;;38.20;21.30;;;;;;5072778;28;20028;-80
2021/04/03 11:41:53;;;;;;;2.05;1.90;;;37.90;21.20;;;;;;5071450;28;20078;-80
2021/04/03 11:44:18;;;;;;;2.35;1.77;;;37.70;21.10;;;;;;5073861;28;20028;-79
2021/04/03 11:46:44;;;;;;;2.60;1.88;;;37.40;21.20;;;;;;5073181;28;20027;-80
2021/04/03 11:49:10;;;;;;;2.03;1.70;;;37.70;21.20;;;;;;5072660;28;20025;-79
2021/04/03 11:51:36;;;;;;;3.15;1.63;;;37.70;21.20;;;;;;5066358;28;20477;-79
2021/04/03 11:54:02;;;;;;;3.25;1.60;;;37.50;21.20;;;;;;5062017;28;20052;-79
2021/04/03 11:56:27;;;;;;;1.50;1.40;;;37.60;21.20;;;;;;5070190;28;20025;-79
2021/04/03 11:58:53;;;;;;;3.53;2.13;;;37.60;21.10;;;;;;5073479;28;20028;-80
2021/04/03 12:01:19;;;;;;;5.32;2.60;;;37.40;21.00;;;;;;5073582;28;20162;-79
2021/04/03 12:03:44;;;;;;;2.50;1.80;;;37.10;21.10;;;;;;5073691;28;20024;-79
2021/04/03 12:06:10;;;;;;;2.90;1.98;;;37.20;21.10;;;;;;5071926;28;20025;-79
2021/04/03 12:08:36;;;;;;;6.72;1.90;;;37.20;21.10;;;;;;5074025;28;20054;-78
2021/04/03 12:11:02;;;;;;;3.67;2.10;;;37.10;21.10;;;;;;5073745;28;20539;-79
2021/04/03 12:13:28;;;;;;;4.35;1.98;;;37.10;21.20;;;;;;5073227;28;20112;-80
2021/04/03 12:15:54;;;;;;;1.80;1.70;;;37.10;21.20;;;;;;5070960;28;20116;-80
2021/04/03 12:18:20;;;;;;;1.65;1.55;;;37.40;21.20;;;;;;5071917;28;20062;-80
2021/04/03 12:20:46;;;;;;;2.95;2.03;;;37.90;21.10;;;;;;5072516;28;20027;-80
2021/04/03 12:23:12;;;;;;;3.40;2.00;;;38.30;21.00;;;;;;5072461;28;20021;-80
2021/04/03 12:25:37;;;;;;;2.92;1.90;;;38.30;20.90;;;;;;5083518;28;20059;-79
2021/04/03 12:28:04;;;;;;;2.47;2.10;;;37.50;20.60;;;;;;5080410;28;20456;-80
2021/04/03 12:30:30;;;;;;;2.10;1.85;;;36.80;20.80;;;;;;5072430;28;20028;-80
2021/04/03 12:32:56;;;;;;;2.70;2.08;;;36.80;20.90;;;;;;5071849;28;20040;-79
2021/04/03 12:35:21;;;;;;;3.28;1.80;;;37.00;20.90;;;;;;5072288;28;20041;-79
2021/04/03 12:37:47;;;;;;;2.58;2.05;;;37.40;20.90;;;;;;5071947;28;20056;-80
2021/04/03 12:40:14;;;;;;;2.95;2.08;;;37.60;20.80;;;;;;5072221;28;20144;-80
2021/04/03 12:42:40;;;;;;;5.38;1.80;;;37.80;20.80;;;;;;5071478;28;20025;-80
2021/04/03 12:45:08;;;;;;;3.80;2.00;;;37.30;20.50;;;;;;5071979;28;20056;-80
2021/04/03 12:47:34;;;;;;;2.75;2.33;;;36.40;20.60;;;;;;5071877;28;20032;-80
2021/04/03 12:50:01;;;;;;;2.35;2.10;;;35.80;20.80;;;;;;5071890;28;20077;-79
2021/04/03 12:52:27;;;;;;;2.47;2.00;;;35.80;21.00;;;;;;5075797;28;20036;-79